createdAt,value
2018-09-11T00:01:58.631Z,18.10
2018-09-11T00:07:02.002Z,18.10
2018-09-11T00:12:05.859Z,18.00
2018-09-11T00:17:09.213Z,17.90
2018-09-11T00:22:12.589Z,17.90
2018-09-11T00:27:16.039Z,17.80
2018-09-11T00:32:19.793Z,17.70
2018-09-11T00:37:23.078Z,17.70
2018-09-11T00:42:26.509Z,17.60
2018-09-11T00:47:29.758Z,17.50
2018-09-11T00:52:33.082Z,17.50
2018-09-11T00:57:36.389Z,17.40
2018-09-11T01:02:39.726Z,17.40
2018-09-11T01:07:42.948Z,17.30
2018-09-11T01:12:46.203Z,17.30
2018-09-11T01:17:49.558Z,17.20
2018-09-11T01:22:53.447Z,17.20
2018-09-11T01:27:56.912Z,17.10
2018-09-11T01:33:00.158Z,17.10
2018-09-11T01:38:04.403Z,17.00
2018-09-11T01:43:07.643Z,17.00
2018-09-11T01:48:11.051Z,16.90
2018-09-11T01:53:14.351Z,16.90
2018-09-11T01:58:17.561Z,16.80
2018-09-11T02:03:20.889Z,16.80
2018-09-11T02:08:24.267Z,16.70
2018-09-11T02:13:27.610Z,16.70
2018-09-11T02:18:31.064Z,16.60
2018-09-11T02:23:34.359Z,16.50
2018-09-11T02:28:37.797Z,16.50
2018-09-11T02:33:41.166Z,16.50
2018-09-11T02:38:44.509Z,16.40
2018-09-11T02:43:48.078Z,16.40
2018-09-11T02:48:51.341Z,16.30
2018-09-11T02:53:54.662Z,16.30
2018-09-11T02:58:57.970Z,16.20
2018-09-11T03:04:01.309Z,16.20
2018-09-11T03:09:05.726Z,16.10
2018-09-11T03:14:10.044Z,16.10
2018-09-11T03:19:13.353Z,16.00
2018-09-11T03:24:16.684Z,16.00
2018-09-11T03:29:20.166Z,15.90
2018-09-11T03:34:23.468Z,15.90
2018-09-11T03:39:26.781Z,15.80
2018-09-11T03:44:30.178Z,15.80
2018-09-11T03:49:34.348Z,15.80
2018-09-11T03:54:39.154Z,15.70
2018-09-11T03:59:42.518Z,15.70
2018-09-11T04:04:45.812Z,15.60
2018-09-11T04:09:49.173Z,15.60
2018-09-11T04:14:52.799Z,15.50
2018-09-11T04:19:56.076Z,15.50
2018-09-11T04:24:59.381Z,15.40
2018-09-11T04:30:03.739Z,15.40
2018-09-11T04:35:07.213Z,15.40
2018-09-11T04:40:10.532Z,15.30
2018-09-11T04:45:13.841Z,15.30
2018-09-11T04:50:17.096Z,15.20
2018-09-11T04:55:20.445Z,15.20
2018-09-11T05:00:23.864Z,15.20
2018-09-11T05:05:27.317Z,15.10
2018-09-11T05:10:30.641Z,15.10
2018-09-11T05:15:34.155Z,15.10
2018-09-11T05:20:37.693Z,15.10
2018-09-11T05:25:41.032Z,15.10
2018-09-11T05:30:44.394Z,15.10
2018-09-11T05:35:47.784Z,15.20
2018-09-11T05:40:51.099Z,15.20
2018-09-11T05:45:54.427Z,15.20
2018-09-11T05:50:57.732Z,15.30
2018-09-11T05:56:01.121Z,15.40
2018-09-11T06:01:04.544Z,15.50
2018-09-11T06:06:08.002Z,15.70
2018-09-11T06:11:11.393Z,15.90
2018-09-11T06:16:14.852Z,16.10
2018-09-11T06:21:18.196Z,16.40
2018-09-11T06:26:21.554Z,16.70
2018-09-11T06:31:24.895Z,17.00
2018-09-11T06:36:28.507Z,17.30
2018-09-11T06:41:31.783Z,17.70
2018-09-11T06:46:35.152Z,18.20
2018-09-11T06:51:38.546Z,18.50
2018-09-11T06:56:41.830Z,18.90
2018-09-11T07:01:45.163Z,19.10
2018-09-11T07:06:48.486Z,19.40
2018-09-11T07:11:52.386Z,19.70
2018-09-11T07:16:55.745Z,19.90
2018-09-11T07:21:59.534Z,20.20
2018-09-11T07:27:03.567Z,20.50
2018-09-11T07:32:07.065Z,20.70
2018-09-11T07:37:10.489Z,20.90
2018-09-11T07:42:13.926Z,21.10
2018-09-11T07:47:17.253Z,21.30
2018-09-11T07:52:20.576Z,21.40
2018-09-11T07:57:23.669Z,21.50
2018-09-11T08:02:26.965Z,21.60
2018-09-11T08:07:30.236Z,21.60
2018-09-11T08:12:33.549Z,21.70
2018-09-11T08:17:36.659Z,21.70
2018-09-11T08:22:39.760Z,21.90
2018-09-11T08:27:42.871Z,22.10
2018-09-11T08:32:45.971Z,22.40
2018-09-11T08:37:49.093Z,22.70
2018-09-11T08:42:52.361Z,23.00
2018-09-11T08:47:55.468Z,23.40
2018-09-11T08:52:58.586Z,23.60
2018-09-11T08:58:01.702Z,23.90
2018-09-11T09:03:05.835Z,24.10
2018-09-11T09:08:08.944Z,24.20
2018-09-11T09:13:12.048Z,24.40
2018-09-11T09:18:15.156Z,24.70
2018-09-11T09:23:18.464Z,25.00
2018-09-11T09:28:21.572Z,25.30
2018-09-11T09:33:24.668Z,25.60
2018-09-11T09:38:27.827Z,25.90
2018-09-11T09:43:31.086Z,26.20
2018-09-11T09:48:34.692Z,26.40
2018-09-11T09:53:37.986Z,26.60
2018-09-11T09:58:41.270Z,26.90
2018-09-11T10:03:44.636Z,27.10
2018-09-11T10:08:47.900Z,27.30
2018-09-11T10:13:51.176Z,27.50
2018-09-11T10:18:55.359Z,27.70
2018-09-11T10:23:58.692Z,28.00
2018-09-11T10:29:01.990Z,28.00
2018-09-11T10:34:05.772Z,28.10
2018-09-11T10:39:09.770Z,28.20
2018-09-11T10:44:13.145Z,28.40
2018-09-11T10:49:16.616Z,28.50
2018-09-11T10:54:20.441Z,28.70
2018-09-11T10:59:23.816Z,28.90
2018-09-11T11:04:28.227Z,29.00
2018-09-11T11:09:31.518Z,29.20
2018-09-11T11:14:34.778Z,29.40
2018-09-11T11:19:38.057Z,29.60
2018-09-11T11:24:41.303Z,29.80
2018-09-11T11:29:44.689Z,29.90
2018-09-11T11:34:47.995Z,30.00
2018-09-11T11:39:51.200Z,30.10
2018-09-11T11:44:54.455Z,30.10
2018-09-11T11:49:57.691Z,30.20
2018-09-11T11:55:00.903Z,30.30
2018-09-11T12:00:04.279Z,30.20
2018-09-11T12:05:07.610Z,30.10
2018-09-11T12:10:10.882Z,30.00
2018-09-11T12:15:14.175Z,29.80
2018-09-11T12:20:17.370Z,29.80
2018-09-11T12:25:20.672Z,29.70
2018-09-11T12:30:24.118Z,29.60
2018-09-11T12:35:27.365Z,29.50
2018-09-11T12:40:30.803Z,29.40
2018-09-11T12:45:34.041Z,29.40
2018-09-11T12:50:37.366Z,29.50
2018-09-11T12:55:40.643Z,29.60
2018-09-11T13:00:45.108Z,29.70
2018-09-11T13:05:48.572Z,29.70
2018-09-11T13:10:51.848Z,29.80
2018-09-11T13:15:55.221Z,29.90
2018-09-11T13:20:58.505Z,30.00
2018-09-11T13:26:01.756Z,30.10
2018-09-11T13:31:05.733Z,30.10
2018-09-11T13:36:09.174Z,30.10
2018-09-11T13:41:13.082Z,30.10
2018-09-11T13:46:16.336Z,30.20
2018-09-11T13:51:19.531Z,30.20
2018-09-11T13:56:22.834Z,30.20
2018-09-11T14:01:26.100Z,30.20
2018-09-11T14:06:29.337Z,30.20
2018-09-11T14:11:32.742Z,30.20
2018-09-11T14:16:36.023Z,30.10
2018-09-11T14:21:39.262Z,30.20
2018-09-11T14:26:42.575Z,30.20
2018-09-11T14:31:45.845Z,30.20
2018-09-11T14:36:49.265Z,30.10
2018-09-11T14:41:52.597Z,30.10
2018-09-11T14:46:55.934Z,30.10
2018-09-11T14:51:59.232Z,30.10
2018-09-11T14:57:02.634Z,30.00
2018-09-11T15:02:06.049Z,29.90
2018-09-11T15:07:09.308Z,29.80
2018-09-11T15:12:12.531Z,29.80
2018-09-11T15:17:16.551Z,29.70
2018-09-11T15:22:19.931Z,29.60
2018-09-11T15:27:23.184Z,29.60
2018-09-11T15:32:26.423Z,29.50
2018-09-11T15:37:29.658Z,29.40
2018-09-11T15:42:33.067Z,29.40
2018-09-11T15:47:36.245Z,29.30
2018-09-11T15:52:39.498Z,29.20
2018-09-11T15:57:42.702Z,29.20
2018-09-11T16:02:45.792Z,29.10
2018-09-11T16:07:48.896Z,29.00
2018-09-11T16:12:52.131Z,28.90
2018-09-11T16:17:56.357Z,28.90
2018-09-11T16:22:59.616Z,28.80
2018-09-11T16:28:02.992Z,28.70
2018-09-11T16:33:06.446Z,28.60
2018-09-11T16:38:09.859Z,28.50
2018-09-11T16:43:13.142Z,28.40
2018-09-11T16:48:16.660Z,28.20
2018-09-11T16:53:19.768Z,28.10
2018-09-11T16:58:23.377Z,28.00
2018-09-11T17:03:26.641Z,27.90
2018-09-11T17:08:30.240Z,27.70
2018-09-11T17:13:35.323Z,27.50
2018-09-11T17:18:39.161Z,27.40
2018-09-11T17:23:42.603Z,27.20
2018-09-11T17:28:46.072Z,27.10
2018-09-11T17:33:49.537Z,26.90
2018-09-11T17:38:53.025Z,26.70
2018-09-11T17:43:56.491Z,26.50
2018-09-11T17:48:59.993Z,26.30
2018-09-11T17:54:03.725Z,26.10
2018-09-11T17:59:07.080Z,25.90
2018-09-11T18:04:10.368Z,25.70
2018-09-11T18:09:13.838Z,25.50
2018-09-11T18:14:17.201Z,25.30
2018-09-11T18:19:20.497Z,25.10
2018-09-11T18:24:23.610Z,24.90
2018-09-11T18:29:26.713Z,24.80
2018-09-11T18:34:29.814Z,24.60
2018-09-11T18:39:32.929Z,24.40
2018-09-11T18:44:36.083Z,24.20
2018-09-11T18:49:39.149Z,24.10
2018-09-11T18:54:42.261Z,23.90
2018-09-11T18:59:45.373Z,23.80
2018-09-11T19:04:48.477Z,23.60
2018-09-11T19:09:51.589Z,23.50
2018-09-11T19:14:54.820Z,23.30
2018-09-11T19:19:58.328Z,23.20
2018-09-11T19:25:01.456Z,23.10
2018-09-11T19:30:07.332Z,22.90
2018-09-11T19:35:10.575Z,22.80
2018-09-11T19:40:13.842Z,22.60
2018-09-11T19:45:17.061Z,22.50
2018-09-11T19:50:20.527Z,22.40
2018-09-11T19:55:24.541Z,22.20
2018-09-11T20:00:27.812Z,22.10
2018-09-11T20:05:31.097Z,22.00
2018-09-11T20:10:34.412Z,21.80
2018-09-11T20:15:37.692Z,21.70
2018-09-11T20:20:40.962Z,21.50
2018-09-11T20:25:44.080Z,21.40
2018-09-11T20:30:47.221Z,21.30
2018-09-11T20:35:50.334Z,21.20
2018-09-11T20:40:53.437Z,21.00
2018-09-11T20:45:56.560Z,20.90
2018-09-11T20:50:59.696Z,20.90
2018-09-11T20:56:02.866Z,20.70
2018-09-11T21:01:05.904Z,20.60
2018-09-11T21:06:09.165Z,20.50
2018-09-11T21:11:12.279Z,20.30
2018-09-11T21:16:15.392Z,20.20
2018-09-11T21:21:18.502Z,20.20
2018-09-11T21:26:21.652Z,20.00
2018-09-11T21:31:24.769Z,19.90
2018-09-11T21:36:27.871Z,19.80
2018-09-11T21:41:30.987Z,19.70
2018-09-11T21:46:34.110Z,19.60
2018-09-11T21:51:37.228Z,19.50
2018-09-11T21:56:40.340Z,19.40
2018-09-11T22:01:48.571Z,19.30
2018-09-11T22:06:51.833Z,19.20
2018-09-11T22:11:54.979Z,19.10
2018-09-11T22:16:58.052Z,19.00
2018-09-11T22:22:01.172Z,18.90
2018-09-11T22:27:04.281Z,18.80
2018-09-11T22:32:07.396Z,18.80
2018-09-11T22:37:10.534Z,18.70
2018-09-11T22:42:13.736Z,18.60
2018-09-11T22:47:16.849Z,18.50
2018-09-11T22:52:19.960Z,18.40
2018-09-11T22:57:23.076Z,18.30
2018-09-11T23:02:26.184Z,18.30
2018-09-11T23:07:29.293Z,18.20
2018-09-11T23:12:32.408Z,18.10
2018-09-11T23:17:35.512Z,18.00
2018-09-11T23:22:39.488Z,17.90
2018-09-11T23:27:42.596Z,17.90
2018-09-11T23:32:45.706Z,17.80
2018-09-11T23:37:48.819Z,17.70
2018-09-11T23:42:51.938Z,17.70
2018-09-11T23:47:55.152Z,17.60
2018-09-11T23:52:58.251Z,17.50
2018-09-11T23:58:01.421Z,17.50
